createdAt,value
2023-02-28T00:00:36.945Z,4.45
2023-02-28T00:03:05.328Z,4.42
2023-02-28T00:05:33.296Z,4.41
2023-02-28T00:08:01.262Z,4.38
2023-02-28T00:10:30.063Z,4.43
2023-02-28T00:13:01.124Z,4.39
2023-02-28T00:15:28.434Z,4.38
2023-02-28T00:17:55.641Z,4.29
2023-02-28T00:20:23.027Z,4.34
2023-02-28T00:22:51.733Z,4.33
2023-02-28T00:25:20.786Z,4.36
2023-02-28T00:27:48.793Z,4.41
2023-02-28T00:30:17.672Z,4.38
2023-02-28T00:32:45.046Z,4.42
2023-02-28T00:35:12.552Z,4.37
2023-02-28T00:37:42.850Z,4.32
2023-02-28T00:40:12.450Z,4.27
2023-02-28T00:42:40.180Z,4.26
2023-02-28T00:45:09.434Z,4.23
2023-02-28T00:47:38.947Z,4.20
2023-02-28T00:50:07.172Z,4.20
2023-02-28T00:52:34.450Z,4.17
2023-02-28T00:55:01.768Z,4.14
2023-02-28T00:57:29.278Z,4.08
2023-02-28T00:59:56.535Z,4.09
2023-02-28T01:02:24.279Z,4.09
2023-02-28T01:04:53.799Z,4.07
2023-02-28T01:07:21.159Z,4.05
2023-02-28T01:09:48.511Z,3.96
2023-02-28T01:12:16.385Z,3.93
2023-02-28T01:14:43.715Z,3.92
2023-02-28T01:17:11.070Z,3.93
2023-02-28T01:19:38.513Z,3.89
2023-02-28T01:22:06.749Z,3.91
2023-02-28T01:24:35.711Z,3.91
2023-02-28T01:27:03.528Z,3.88
2023-02-28T01:29:30.810Z,3.86
2023-02-28T01:32:01.101Z,3.88
2023-02-28T01:34:28.493Z,3.82
2023-02-28T01:36:55.674Z,3.75
2023-02-28T01:39:23.043Z,3.79
2023-02-28T01:41:51.043Z,3.81
2023-02-28T01:44:37.931Z,3.80
2023-02-28T01:47:05.203Z,3.83
2023-02-28T01:49:32.513Z,3.79
2023-02-28T01:51:59.979Z,3.84
2023-02-28T01:54:30.581Z,3.88
2023-02-28T01:56:58.299Z,3.87
2023-02-28T01:59:33.373Z,3.86
2023-02-28T02:02:01.079Z,3.89
2023-02-28T02:04:33.360Z,3.86
2023-02-28T02:07:00.836Z,3.87
2023-02-28T02:09:28.221Z,3.89
2023-02-28T02:11:56.673Z,3.84
2023-02-28T02:14:44.265Z,3.86
2023-02-28T02:17:21.735Z,3.84
2023-02-28T02:19:55.523Z,3.90
2023-02-28T02:22:41.637Z,3.84
2023-02-28T02:25:28.063Z,3.85
2023-02-28T02:28:05.921Z,3.77
2023-02-28T02:30:54.044Z,3.84
2023-02-28T02:33:46.649Z,3.86
2023-02-28T02:36:26.047Z,3.88
2023-02-28T02:38:56.802Z,3.97
2023-02-28T02:41:27.377Z,3.97
2023-02-28T02:44:04.178Z,3.94
2023-02-28T02:46:35.007Z,3.84
2023-02-28T02:49:05.600Z,3.92
2023-02-28T02:51:33.797Z,4.03
2023-02-28T02:54:06.139Z,3.97
2023-02-28T02:56:34.955Z,4.00
2023-02-28T02:59:04.438Z,3.96
2023-02-28T03:01:33.345Z,3.89
2023-02-28T03:04:04.354Z,3.89
2023-02-28T03:06:31.841Z,3.98
2023-02-28T03:09:00.932Z,3.95
2023-02-28T03:11:28.840Z,3.99
2023-02-28T03:14:02.489Z,4.00
2023-02-28T03:16:50.248Z,3.98
2023-02-28T03:19:27.799Z,4.01
2023-02-28T03:21:58.234Z,4.04
2023-02-28T03:24:25.435Z,3.97
2023-02-28T03:27:04.954Z,3.97
2023-02-28T03:29:38.874Z,3.88
2023-02-28T03:32:15.567Z,3.92
2023-02-28T03:34:47.510Z,3.83
2023-02-28T03:37:21.141Z,3.78
2023-02-28T03:39:50.306Z,3.78
2023-02-28T03:42:23.336Z,3.71
2023-02-28T03:44:54.731Z,3.56
2023-02-28T03:47:35.146Z,3.51
2023-02-28T03:50:14.321Z,3.41
2023-02-28T03:52:46.259Z,3.49
2023-02-28T03:55:16.251Z,3.31
2023-02-28T03:58:22.336Z,3.17
2023-02-28T04:00:54.217Z,3.18
2023-02-28T04:03:21.689Z,3.12
2023-02-28T04:05:53.752Z,3.19
2023-02-28T04:08:21.866Z,3.18
2023-02-28T04:11:09.295Z,3.16
2023-02-28T04:13:36.515Z,3.12
2023-02-28T04:16:18.652Z,3.27
2023-02-28T04:18:51.829Z,3.27
2023-02-28T04:21:21.895Z,3.26
2023-02-28T04:23:49.168Z,3.23
2023-02-28T04:26:16.369Z,3.22
2023-02-28T04:28:43.621Z,3.25
2023-02-28T04:31:10.972Z,3.22
2023-02-28T04:33:38.262Z,2.95
2023-02-28T04:36:07.182Z,2.78
2023-02-28T04:38:34.925Z,2.74
2023-02-28T04:41:02.194Z,2.68
2023-02-28T04:43:29.824Z,2.72
2023-02-28T04:45:57.749Z,2.72
2023-02-28T04:48:25.670Z,2.79
2023-02-28T04:50:53.032Z,2.68
2023-02-28T04:53:20.583Z,2.65
2023-02-28T04:55:47.880Z,2.59
2023-02-28T04:58:15.084Z,2.56
2023-02-28T05:00:42.376Z,2.56
2023-02-28T05:03:10.857Z,2.81
2023-02-28T05:05:38.352Z,2.89
2023-02-28T05:08:06.308Z,3.12
2023-02-28T05:10:33.707Z,3.25
2023-02-28T05:13:00.973Z,3.19
2023-02-28T05:15:28.261Z,3.24
2023-02-28T05:17:55.605Z,3.30
2023-02-28T05:20:22.784Z,3.36
2023-02-28T05:22:50.528Z,3.38
2023-02-28T05:25:19.415Z,3.43
2023-02-28T05:27:46.671Z,3.50
2023-02-28T05:30:14.144Z,3.49
2023-02-28T05:32:44.628Z,3.47
2023-02-28T05:35:12.205Z,3.36
2023-02-28T05:37:39.754Z,3.39
2023-02-28T05:40:08.258Z,3.41
2023-02-28T05:42:35.621Z,3.52
2023-02-28T05:45:03.520Z,3.47
2023-02-28T05:47:30.805Z,3.49
2023-02-28T05:49:58.108Z,3.45
2023-02-28T05:52:25.496Z,3.53
2023-02-28T05:54:52.714Z,3.46
2023-02-28T05:57:24.651Z,3.51
2023-02-28T05:59:52.118Z,3.54
2023-02-28T06:02:19.635Z,3.51
2023-02-28T06:04:47.100Z,3.53
2023-02-28T06:07:14.641Z,3.56
2023-02-28T06:09:41.955Z,3.62
2023-02-28T06:12:10.858Z,3.66
2023-02-28T06:14:38.128Z,3.66
2023-02-28T06:17:05.507Z,3.62
2023-02-28T06:19:32.955Z,3.67
2023-02-28T06:22:00.805Z,3.64
2023-02-28T06:24:31.392Z,3.62
2023-02-28T06:27:05.868Z,3.67
2023-02-28T06:29:34.298Z,3.64
2023-02-28T06:32:01.592Z,3.52
2023-02-28T06:34:29.002Z,3.62
2023-02-28T06:36:57.406Z,3.71
2023-02-28T06:39:24.915Z,3.65
2023-02-28T06:41:56.035Z,3.73
2023-02-28T06:44:24.278Z,3.70
2023-02-28T06:46:51.462Z,3.79
2023-02-28T06:49:18.812Z,3.90
2023-02-28T06:51:46.216Z,3.86
2023-02-28T06:54:13.910Z,3.83
2023-02-28T06:56:41.445Z,3.86
2023-02-28T06:59:08.725Z,4.00
2023-02-28T07:01:36.193Z,3.93
2023-02-28T07:04:03.889Z,3.97
2023-02-28T07:06:31.377Z,4.05
2023-02-28T07:08:59.149Z,4.21
2023-02-28T07:11:27.316Z,4.27
2023-02-28T07:13:55.555Z,4.48
2023-02-28T07:16:24.040Z,4.65
2023-02-28T07:18:53.485Z,4.68
2023-02-28T07:21:20.753Z,4.75
2023-02-28T07:23:48.151Z,4.77
2023-02-28T07:26:16.490Z,4.92
2023-02-28T07:28:44.430Z,4.96
2023-02-28T07:31:12.484Z,5.03
2023-02-28T07:33:39.741Z,4.95
2023-02-28T07:36:09.161Z,4.88
2023-02-28T07:38:36.838Z,4.91
2023-02-28T07:41:05.415Z,4.95
2023-02-28T07:43:33.564Z,4.88
2023-02-28T07:46:08.916Z,4.84
2023-02-28T07:48:36.302Z,4.84
2023-02-28T07:51:03.795Z,4.84
2023-02-28T07:53:31.143Z,4.78
2023-02-28T07:55:59.046Z,4.79
2023-02-28T07:58:26.917Z,4.67
2023-02-28T08:00:54.568Z,4.81
2023-02-28T08:03:22.872Z,4.87
2023-02-28T08:05:50.680Z,4.93
2023-02-28T08:08:17.917Z,5.02
2023-02-28T08:10:45.552Z,4.84
2023-02-28T08:13:12.716Z,4.82
2023-02-28T08:15:41.655Z,4.85
2023-02-28T08:18:11.658Z,4.87
2023-02-28T08:20:39.007Z,4.99
2023-02-28T08:23:06.341Z,5.11
2023-02-28T08:25:33.715Z,5.14
2023-02-28T08:28:00.922Z,5.31
2023-02-28T08:30:28.137Z,5.42
2023-02-28T08:32:56.367Z,5.42
2023-02-28T08:35:23.708Z,5.48
2023-02-28T08:37:51.410Z,5.57
2023-02-28T08:40:21.565Z,5.68
2023-02-28T08:42:48.874Z,5.87
2023-02-28T08:45:16.189Z,6.14
2023-02-28T08:47:43.534Z,6.37
2023-02-28T08:50:11.342Z,6.54
2023-02-28T08:52:39.485Z,7.01
2023-02-28T08:55:06.964Z,7.22
2023-02-28T08:57:34.256Z,7.44
2023-02-28T09:00:02.817Z,7.51
2023-02-28T09:02:30.098Z,7.62
2023-02-28T09:04:57.240Z,7.86
2023-02-28T09:07:24.664Z,8.05
2023-02-28T09:09:55.707Z,8.27
2023-02-28T09:12:24.109Z,8.16
2023-02-28T09:14:51.619Z,8.04
2023-02-28T09:17:19.453Z,7.94
2023-02-28T09:19:48.399Z,7.90
2023-02-28T09:22:15.638Z,7.87
2023-02-28T09:24:42.930Z,7.91
2023-02-28T09:27:10.631Z,8.14
2023-02-28T09:29:38.174Z,8.20
2023-02-28T09:32:06.793Z,7.73
2023-02-28T09:34:34.452Z,8.01
2023-02-28T09:37:01.958Z,7.87
2023-02-28T09:39:30.052Z,8.14
2023-02-28T09:41:57.400Z,8.45
2023-02-28T09:44:28.115Z,8.36
2023-02-28T09:47:00.747Z,8.39
2023-02-28T09:49:40.690Z,8.55
2023-02-28T09:52:17.346Z,8.62
2023-02-28T09:54:44.684Z,8.61
2023-02-28T09:57:18.970Z,8.61
2023-02-28T10:00:01.861Z,8.73
2023-02-28T10:02:42.946Z,8.53
2023-02-28T10:05:15.677Z,8.54
2023-02-28T10:08:06.247Z,8.76
2023-02-28T10:10:46.845Z,8.80
2023-02-28T10:13:17.712Z,8.95
2023-02-28T10:15:48.314Z,9.27
2023-02-28T10:18:22.078Z,9.04
2023-02-28T10:20:51.168Z,9.24
2023-02-28T10:23:25.030Z,9.22
2023-02-28T10:26:00.773Z,9.16
2023-02-28T10:28:30.461Z,9.22
2023-02-28T10:30:59.677Z,9.06
2023-02-28T10:33:32.371Z,9.16
2023-02-28T10:36:00.398Z,9.26
2023-02-28T10:38:34.398Z,9.18
2023-02-28T10:41:35.860Z,8.95
2023-02-28T10:44:22.825Z,9.28
2023-02-28T10:46:52.125Z,9.49
2023-02-28T10:49:29.811Z,9.55
2023-02-28T10:52:00.709Z,9.52
2023-02-28T10:54:36.234Z,9.36
2023-02-28T10:57:18.979Z,9.16
2023-02-28T10:59:48.054Z,8.89
2023-02-28T11:02:44.052Z,9.27
2023-02-28T11:05:28.081Z,9.30
2023-02-28T11:08:00.746Z,9.39
2023-02-28T11:10:35.872Z,9.58
2023-02-28T11:13:04.818Z,9.59
2023-02-28T11:15:35.027Z,9.54
2023-02-28T11:18:14.658Z,9.75
2023-02-28T11:20:42.005Z,10.11
2023-02-28T11:23:13.313Z,9.59
2023-02-28T11:25:41.045Z,9.53
2023-02-28T11:28:25.476Z,9.47
2023-02-28T11:31:13.047Z,9.48
2023-02-28T11:33:53.901Z,9.62
2023-02-28T11:36:28.953Z,9.43
2023-02-28T11:39:04.021Z,9.47
2023-02-28T11:41:34.575Z,9.63
2023-02-28T11:44:56.430Z,9.55
2023-02-28T11:47:30.712Z,9.54
2023-02-28T11:50:13.313Z,9.91
2023-02-28T11:52:54.191Z,10.07
2023-02-28T11:55:43.890Z,10.17
2023-02-28T11:58:38.150Z,10.20
2023-02-28T12:01:33.303Z,10.32
2023-02-28T12:04:18.854Z,10.28
2023-02-28T12:07:15.484Z,10.07
2023-02-28T12:10:01.068Z,10.24
2023-02-28T12:12:47.240Z,10.43
2023-02-28T12:15:28.999Z,10.02
2023-02-28T12:18:15.677Z,10.25
2023-02-28T12:21:24.618Z,10.53
2023-02-28T12:24:05.512Z,10.35
2023-02-28T12:26:51.396Z,10.27
2023-02-28T12:29:31.607Z,10.46
2023-02-28T12:32:19.733Z,10.77
2023-02-28T12:34:52.258Z,10.74
2023-02-28T12:37:34.562Z,10.91
2023-02-28T12:40:08.029Z,11.02
2023-02-28T12:42:42.116Z,10.81
2023-02-28T12:45:19.588Z,10.58
2023-02-28T12:47:52.623Z,10.60
2023-02-28T12:50:21.105Z,10.23
2023-02-28T12:52:59.948Z,10.44
2023-02-28T12:55:50.749Z,10.18
2023-02-28T12:58:56.923Z,10.20
2023-02-28T13:01:29.040Z,10.45
2023-02-28T13:04:33.695Z,10.14
2023-02-28T13:07:29.275Z,10.42
2023-02-28T13:10:03.246Z,10.27
2023-02-28T13:12:31.475Z,10.52
2023-02-28T13:15:25.760Z,10.48
2023-02-28T13:17:56.217Z,10.41
2023-02-28T13:20:30.924Z,10.60
2023-02-28T13:22:58.877Z,10.43
2023-02-28T13:25:26.338Z,10.61
2023-02-28T13:28:01.754Z,10.61
2023-02-28T13:30:58.594Z,10.60
2023-02-28T13:33:31.230Z,10.63
2023-02-28T13:36:20.297Z,10.65
2023-02-28T13:38:52.759Z,10.46
2023-02-28T13:41:32.837Z,10.69
2023-02-28T13:44:07.088Z,10.62
2023-02-28T13:46:57.704Z,10.55
2023-02-28T13:49:34.885Z,10.46
2023-02-28T13:52:09.491Z,10.41
2023-02-28T13:54:46.159Z,10.55
2023-02-28T13:57:31.759Z,10.62
2023-02-28T14:00:18.167Z,10.29
2023-02-28T14:02:59.137Z,10.29
2023-02-28T14:05:28.198Z,10.31
2023-02-28T14:08:00.709Z,10.42
2023-02-28T14:10:33.641Z,10.41
2023-02-28T14:13:15.401Z,10.56
2023-02-28T14:15:48.218Z,10.46
2023-02-28T14:18:29.418Z,10.48
2023-02-28T14:21:10.274Z,10.40
2023-02-28T14:24:04.292Z,10.23
2023-02-28T14:26:50.465Z,10.19
2023-02-28T14:29:42.873Z,10.24
2023-02-28T14:32:20.056Z,10.31
2023-02-28T14:35:06.819Z,10.29
2023-02-28T14:37:38.600Z,10.49
2023-02-28T14:40:16.092Z,10.49
2023-02-28T14:42:49.647Z,10.28
2023-02-28T14:45:21.722Z,10.37
2023-02-28T14:47:52.257Z,10.42
2023-02-28T14:50:24.002Z,10.35
2023-02-28T14:52:58.610Z,10.09
2023-02-28T14:55:30.862Z,10.21
2023-02-28T14:58:01.269Z,10.29
2023-02-28T15:00:32.305Z,10.26
2023-02-28T15:03:02.676Z,10.31
2023-02-28T15:05:35.704Z,10.14
2023-02-28T15:08:16.389Z,10.18
2023-02-28T15:10:46.923Z,10.01
2023-02-28T15:13:16.204Z,9.92
2023-02-28T15:16:04.621Z,9.99
2023-02-28T15:19:00.537Z,9.98
2023-02-28T15:21:41.277Z,9.82
2023-02-28T15:24:14.072Z,9.80
2023-02-28T15:26:45.871Z,9.74
2023-02-28T15:29:21.765Z,9.66
2023-02-28T15:31:57.350Z,9.79
2023-02-28T15:34:43.788Z,9.68
2023-02-28T15:37:33.227Z,9.57
2023-02-28T15:40:17.374Z,9.56
2023-02-28T15:43:04.877Z,9.61
2023-02-28T15:45:42.398Z,9.47
2023-02-28T15:48:20.740Z,9.43
2023-02-28T15:50:51.147Z,9.39
2023-02-28T15:53:22.953Z,9.29
2023-02-28T15:55:57.074Z,9.19
2023-02-28T15:58:26.021Z,9.26
2023-02-28T16:01:17.804Z,9.16
2023-02-28T16:03:48.837Z,9.02
2023-02-28T16:06:37.728Z,9.16
2023-02-28T16:09:08.923Z,9.12
2023-02-28T16:11:40.415Z,9.07
2023-02-28T16:14:14.813Z,9.00
2023-02-28T16:16:48.930Z,9.09
2023-02-28T16:19:16.817Z,9.05
2023-02-28T16:21:44.540Z,8.96
2023-02-28T16:24:12.351Z,9.02
2023-02-28T16:26:42.678Z,8.80
2023-02-28T16:29:17.976Z,8.81
2023-02-28T16:31:45.542Z,8.70
2023-02-28T16:34:13.056Z,8.80
2023-02-28T16:36:41.340Z,8.77
2023-02-28T16:39:08.760Z,8.69
2023-02-28T16:41:36.232Z,8.63
2023-02-28T16:44:11.749Z,8.69
2023-02-28T16:46:39.416Z,8.52
2023-02-28T16:49:12.924Z,8.46
2023-02-28T16:51:40.501Z,8.37
2023-02-28T16:54:07.884Z,8.28
2023-02-28T16:56:35.783Z,8.28
2023-02-28T16:59:04.546Z,8.24
2023-02-28T17:01:32.746Z,8.21
2023-02-28T17:04:00.575Z,8.17
2023-02-28T17:06:30.717Z,7.80
2023-02-28T17:09:00.390Z,7.73
2023-02-28T17:11:28.411Z,7.43
2023-02-28T17:13:56.298Z,7.20
2023-02-28T17:16:29.057Z,7.06
2023-02-28T17:18:59.953Z,6.90
2023-02-28T17:21:28.725Z,7.05
2023-02-28T17:23:57.043Z,7.23
2023-02-28T17:26:29.148Z,7.28
2023-02-28T17:28:58.333Z,7.37
2023-02-28T17:31:27.297Z,7.29
2023-02-28T17:33:58.214Z,7.39
2023-02-28T17:36:28.270Z,7.24
2023-02-28T17:38:56.489Z,7.27
2023-02-28T17:41:24.279Z,6.94
2023-02-28T17:43:51.898Z,6.67
2023-02-28T17:46:22.795Z,6.47
2023-02-28T17:48:51.527Z,6.36
2023-02-28T17:51:21.283Z,6.45
2023-02-28T17:53:49.269Z,6.31
2023-02-28T17:56:21.957Z,6.25
2023-02-28T17:58:50.264Z,6.32
2023-02-28T18:01:17.887Z,6.19
2023-02-28T18:03:45.581Z,6.46
2023-02-28T18:06:17.860Z,6.30
2023-02-28T18:08:45.618Z,6.37
2023-02-28T18:11:18.502Z,6.16
2023-02-28T18:13:47.159Z,6.13
2023-02-28T18:16:15.357Z,6.02
2023-02-28T18:18:43.890Z,6.04
2023-02-28T18:21:13.754Z,5.90
2023-02-28T18:23:47.966Z,5.83
2023-02-28T18:26:17.840Z,5.81
2023-02-28T18:28:45.658Z,5.71
2023-02-28T18:31:16.323Z,5.47
2023-02-28T18:33:44.917Z,5.57
2023-02-28T18:36:12.521Z,5.65
2023-02-28T18:38:40.676Z,5.61
2023-02-28T18:41:08.600Z,5.59
2023-02-28T18:43:40.967Z,5.56
2023-02-28T18:46:12.000Z,5.51
2023-02-28T18:48:40.253Z,5.50
2023-02-28T18:51:14.996Z,5.45
2023-02-28T18:53:44.139Z,5.32
2023-02-28T18:56:18.345Z,5.26
2023-02-28T18:58:46.688Z,5.10
2023-02-28T19:01:26.262Z,5.08
2023-02-28T19:03:53.703Z,5.08
2023-02-28T19:06:21.356Z,4.98
2023-02-28T19:08:53.643Z,4.95
2023-02-28T19:11:21.399Z,4.97
2023-02-28T19:13:49.364Z,4.83
2023-02-28T19:16:18.273Z,4.88
2023-02-28T19:18:50.707Z,4.87
2023-02-28T19:21:20.853Z,4.70
2023-02-28T19:23:49.249Z,4.68
2023-02-28T19:26:18.605Z,4.69
2023-02-28T19:28:51.039Z,4.65
2023-02-28T19:31:23.615Z,4.70
2023-02-28T19:33:53.628Z,4.58
2023-02-28T19:36:23.758Z,4.53
2023-02-28T19:38:51.615Z,4.41
2023-02-28T19:41:20.632Z,4.35
2023-02-28T19:43:50.295Z,4.22
2023-02-28T19:46:19.643Z,4.14
2023-02-28T19:48:49.261Z,4.06
2023-02-28T19:53:46.404Z,3.99
2023-02-28T19:56:14.607Z,4.09
2023-02-28T19:58:43.361Z,3.98
2023-02-28T20:01:12.748Z,3.84
2023-02-28T20:03:41.805Z,3.80
2023-02-28T20:06:11.144Z,3.84
2023-02-28T20:08:39.754Z,3.63
2023-02-28T20:11:12.714Z,3.57
2023-02-28T20:13:41.676Z,3.53
2023-02-28T20:16:12.780Z,3.50
2023-02-28T20:18:42.227Z,3.38
2023-02-28T20:21:11.941Z,3.40
2023-02-28T20:23:44.302Z,3.45
2023-02-28T20:26:14.083Z,3.45
2023-02-28T20:28:43.265Z,3.50
2023-02-28T20:31:14.698Z,3.36
2023-02-28T20:33:46.575Z,3.34
2023-02-28T20:36:16.467Z,3.39
2023-02-28T20:38:45.417Z,3.45
2023-02-28T20:41:14.033Z,3.34
2023-02-28T20:43:43.565Z,3.31
2023-02-28T20:46:12.465Z,3.13
2023-02-28T20:48:40.773Z,3.04
2023-02-28T20:51:08.426Z,3.03
2023-02-28T20:53:37.246Z,3.01
2023-02-28T20:56:11.863Z,2.86
2023-02-28T20:58:40.596Z,2.86
2023-02-28T21:01:28.107Z,2.92
2023-02-28T21:03:57.698Z,2.82
2023-02-28T21:06:27.880Z,2.98
2023-02-28T21:08:57.161Z,2.88
2023-02-28T21:11:27.332Z,2.80
2023-02-28T21:13:56.060Z,2.72
2023-02-28T21:16:25.565Z,2.79
2023-02-28T21:18:55.290Z,2.87
2023-02-28T21:21:25.444Z,3.01
2023-02-28T21:23:54.135Z,3.01
2023-02-28T21:26:23.930Z,3.09
2023-02-28T21:28:53.778Z,3.02
2023-02-28T21:31:23.402Z,3.08
2023-02-28T21:33:52.678Z,3.24
2023-02-28T21:36:22.373Z,3.24
2023-02-28T21:38:55.692Z,3.30
2023-02-28T21:41:24.392Z,3.55
2023-02-28T21:43:52.513Z,3.53
2023-02-28T21:46:21.397Z,3.69
2023-02-28T21:48:52.308Z,3.80
2023-02-28T21:51:21.126Z,3.85
2023-02-28T21:53:49.425Z,4.02
2023-02-28T21:56:21.477Z,4.08
2023-02-28T21:58:49.216Z,4.11
2023-02-28T22:01:20.611Z,4.12
2023-02-28T22:03:49.076Z,4.18
2023-02-28T22:06:17.912Z,4.13
2023-02-28T22:08:46.429Z,4.01
2023-02-28T22:11:14.656Z,4.29
2023-02-28T22:13:42.070Z,4.51
2023-02-28T22:16:11.831Z,4.66
2023-02-28T22:18:39.940Z,4.80
2023-02-28T22:21:08.164Z,4.81
2023-02-28T22:23:37.876Z,4.90
2023-02-28T22:26:06.310Z,5.02
2023-02-28T22:28:33.570Z,5.18
2023-02-28T22:31:01.214Z,5.35
2023-02-28T22:33:28.594Z,5.36
2023-02-28T22:35:55.960Z,5.30
2023-02-28T22:38:23.394Z,5.30
2023-02-28T22:40:50.670Z,5.28
2023-02-28T22:43:17.904Z,5.31
2023-02-28T22:45:45.180Z,5.32
2023-02-28T22:48:12.517Z,5.28
2023-02-28T22:50:39.644Z,5.30
2023-02-28T22:53:06.897Z,5.37
2023-02-28T22:55:34.073Z,5.30
2023-02-28T22:58:01.550Z,5.27
2023-02-28T23:00:28.713Z,5.18
2023-02-28T23:02:55.971Z,4.90
2023-02-28T23:05:23.428Z,4.80
2023-02-28T23:07:50.898Z,4.66
2023-02-28T23:10:18.413Z,4.62
2023-02-28T23:12:51.898Z,4.37
2023-02-28T23:15:21.170Z,4.14
2023-02-28T23:17:48.686Z,3.99
2023-02-28T23:20:18.525Z,4.09
2023-02-28T23:22:50.633Z,3.94
2023-02-28T23:25:19.131Z,3.95
2023-02-28T23:27:46.661Z,3.84
2023-02-28T23:30:14.586Z,3.75
2023-02-28T23:32:42.422Z,3.77
2023-02-28T23:35:10.187Z,3.90
2023-02-28T23:37:38.293Z,3.86
2023-02-28T23:40:08.267Z,3.75
2023-02-28T23:42:35.675Z,3.56
2023-02-28T23:45:04.556Z,3.54
2023-02-28T23:47:32.798Z,3.40
2023-02-28T23:50:00.215Z,3.36
2023-02-28T23:52:27.599Z,3.43
2023-02-28T23:54:54.848Z,3.36
2023-02-28T23:57:22.161Z,3.41
2023-02-28T23:59:49.746Z,3.30
